Time;durP1;ratioP1;P1;durP2;ratioP2;P2;SDS_P1;SDS_P2;PMS_P1;PMS_P2;Temp;Humidity;BMP_temperature;BMP_pressure;BME280_temperature;BME280_humidity;BME280_pressure;Samples;Min_cycle;Max_cycle;Signal;HPM_P1;HPM_P2
2023/10/11 00:01:06;;;;;;;1123.50;999.90;;;;;;;21.88;54.25;98959.25;5060864;27;103306;-67
2023/10/11 00:03:36;;;;;;;1132.10;999.90;;;;;;;21.96;53.91;98964.56;5044314;27;102777;-67
2023/10/11 00:06:11;;;;;;;1108.13;999.90;;;;;;;22.16;53.10;98963.13;5064550;27;102745;-67
2023/10/11 00:08:40;;;;;;;1108.82;999.90;;;;;;;22.29;52.70;98963.34;5061118;27;103983;-67
2023/10/11 00:11:09;;;;;;;1108.85;999.90;;;;;;;22.26;52.67;98962.91;5062006;27;103197;-67
2023/10/11 00:13:38;;;;;;;1130.25;999.90;;;;;;;21.56;55.36;98959.38;5062355;27;102656;-67
2023/10/11 00:16:10;;;;;;;1121.63;999.90;;;;;;;21.82;53.40;98965.28;5060840;27;103972;-67
2023/10/11 00:18:41;;;;;;;1096.93;999.90;;;;;;;21.99;53.34;98958.84;5060163;27;104678;-67
2023/10/11 00:21:11;;;;;;;1114.57;999.90;;;;;;;22.13;53.37;98957.25;5062869;27;102978;-67
2023/10/11 00:23:42;;;;;;;1109.43;999.90;;;;;;;22.13;52.82;98960.78;5065234;27;102724;-68
2023/10/11 00:26:14;;;;;;;1097.90;999.90;;;;;;;22.47;51.84;98955.00;5045045;27;104010;-67
2023/10/11 00:28:51;;;;;;;1100.30;999.90;;;;;;;22.40;51.41;98949.47;5063244;27;104346;-67
2023/10/11 00:31:23;;;;;;;1077.95;999.90;;;;;;;22.53;51.53;98963.19;5062376;27;103292;-67
2023/10/11 00:33:53;;;;;;;1085.85;999.90;;;;;;;22.52;51.71;98953.44;5065857;27;102693;-67
2023/10/11 00:36:29;;;;;;;1090.45;999.90;;;;;;;22.61;50.74;98945.28;5044500;27;103921;-67
2023/10/11 00:38:58;;;;;;;1087.38;999.90;;;;;;;22.78;50.90;98952.25;5062700;27;103640;-66
2023/10/11 00:41:30;;;;;;;1088.03;999.90;;;;;;;22.88;50.59;98944.72;5041715;27;103250;-66
2023/10/11 00:43:59;;;;;;;1074.10;999.90;;;;;;;22.98;49.76;98940.78;5042433;27;102658;-66
2023/10/11 00:46:37;;;;;;;1105.90;999.90;;;;;;;22.57;50.95;98946.69;5042765;27;102720;-66
2023/10/11 00:49:09;;;;;;;1100.95;999.90;;;;;;;22.63;50.40;98941.38;5062675;27;103673;-66
2023/10/11 00:51:39;;;;;;;1097.22;999.90;;;;;;;21.75;53.03;98937.44;5045510;27;104425;-67
2023/10/11 00:54:08;;;;;;;1112.85;999.90;;;;;;;22.09;52.51;98934.41;5040637;27;102641;-66
2023/10/11 00:56:36;;;;;;;1109.90;999.90;;;;;;;22.04;52.82;98931.41;5047625;27;103767;-66
2023/10/11 00:59:08;;;;;;;1096.65;999.90;;;;;;;22.13;52.86;98928.50;5041880;27;104159;-67
2023/10/11 01:01:39;;;;;;;1108.60;999.90;;;;;;;22.40;52.47;98927.94;5045332;27;104747;-67
2023/10/11 01:04:08;;;;;;;1120.90;999.90;;;;;;;22.21;52.34;98925.75;5043359;27;102974;-67
2023/10/11 01:06:37;;;;;;;1089.93;999.90;;;;;;;22.52;51.35;98931.06;5062816;27;104213;-66
2023/10/11 01:09:15;;;;;;;1109.27;999.90;;;;;;;22.61;50.88;98929.13;5041929;27;103676;-66
2023/10/11 01:11:45;;;;;;;1110.82;999.90;;;;;;;22.18;51.92;98928.78;5040239;27;103258;-67
2023/10/11 01:14:14;;;;;;;1111.53;999.90;;;;;;;22.15;52.08;98929.13;5063691;27;102945;-66
2023/10/11 01:16:43;;;;;;;1081.13;999.90;;;;;;;22.50;50.99;98927.72;5063476;27;104363;-67
2023/10/11 01:19:15;;;;;;;1070.05;999.90;;;;;;;22.57;50.79;98925.16;5061709;27;104100;-66
2023/10/11 01:21:47;;;;;;;1101.60;999.90;;;;;;;21.92;51.91;98917.53;5057841;27;103334;-68
2023/10/11 01:24:16;;;;;;;1123.25;999.90;;;;;;;21.07;54.56;98921.03;5044628;27;102787;-66
2023/10/11 01:26:45;;;;;;;1105.80;999.90;;;;;;;22.09;51.95;98916.41;5046566;27;104069;-68
2023/10/11 01:29:13;;;;;;;1105.80;999.90;;;;;;;22.12;51.54;98913.34;5062363;27;103875;-67
2023/10/11 01:31:42;;;;;;;1089.65;999.90;;;;;;;21.92;51.91;98912.97;5043500;27;103191;-67
2023/10/11 01:34:14;;;;;;;1096.90;999.90;;;;;;;22.24;51.37;98916.47;5040391;27;102765;-67
2023/10/11 01:36:45;;;;;;;1077.82;999.90;;;;;;;22.19;50.73;98914.31;5044141;27;102766;-67
2023/10/11 01:39:14;;;;;;;1101.38;999.90;;;;;;;22.32;50.87;98916.41;5041263;27;103961;-67
2023/10/11 01:41:43;;;;;;;1087.00;999.90;;;;;;;22.41;50.27;98908.09;5043638;27;104133;-67
2023/10/11 01:44:12;;;;;;;1101.93;999.90;;;;;;;22.46;50.56;98919.16;5063627;27;102791;-67
2023/10/11 01:46:41;;;;;;;1086.18;999.90;;;;;;;22.50;50.33;98912.41;5062852;27;104155;-67
2023/10/11 01:49:10;;;;;;;1061.95;997.15;;;;;;;22.65;49.80;98903.56;5060404;27;103089;-67
2023/10/11 01:51:46;;;;;;;1079.55;999.90;;;;;;;22.57;49.75;98906.31;5064386;27;103315;-67
2023/10/11 01:54:16;;;;;;;1098.97;999.90;;;;;;;22.27;50.74;98906.19;5038333;27;102706;-67
2023/10/11 01:56:45;;;;;;;1094.60;999.90;;;;;;;22.35;50.63;98898.06;5044421;27;103779;-67
2023/10/11 01:59:14;;;;;;;1095.43;999.90;;;;;;;22.44;50.11;98905.03;5044183;27;103663;-66
2023/10/11 02:01:43;;;;;;;1111.00;999.90;;;;;;;21.89;51.40;98904.44;5045544;27;104406;-66
2023/10/11 02:04:17;;;;;;;1109.55;999.90;;;;;;;21.99;51.25;98902.34;5047343;27;103457;-66
2023/10/11 02:06:47;;;;;;;1105.18;999.90;;;;;;;21.83;51.95;98903.28;5060372;27;102735;-67
2023/10/11 02:09:20;;;;;;;1105.93;999.90;;;;;;;21.58;52.45;98908.94;5040533;27;104456;-66
2023/10/11 02:11:52;;;;;;;1102.80;999.90;;;;;;;22.01;51.60;98900.31;5060722;27;104344;-66
2023/10/11 02:14:22;;;;;;;1105.97;999.90;;;;;;;21.70;52.46;98897.63;5062420;27;102593;-66
2023/10/11 02:16:53;;;;;;;1117.13;999.90;;;;;;;21.85;51.74;98897.69;5062777;27;104137;-67
2023/10/11 02:19:24;;;;;;;1116.70;999.90;;;;;;;21.43;52.85;98899.94;5072985;27;104231;-67
2023/10/11 02:21:53;;;;;;;1087.13;999.90;;;;;;;21.68;51.84;98883.50;5045465;27;103732;-66
2023/10/11 02:24:25;;;;;;;1109.00;999.90;;;;;;;21.98;51.29;98895.28;5062304;27;102566;-66
2023/10/11 02:26:55;;;;;;;1111.45;999.90;;;;;;;21.74;51.87;98893.56;5042633;27;102902;-66
2023/10/11 02:29:26;;;;;;;1102.73;999.90;;;;;;;21.24;53.03;98896.66;5065523;27;104105;-66
2023/10/11 02:31:57;;;;;;;1101.88;999.90;;;;;;;21.18;53.03;98897.34;5065709;27;103191;-66
2023/10/11 02:34:27;;;;;;;1108.57;999.90;;;;;;;21.74;52.32;98898.09;5046414;27;103138;-66
2023/10/11 02:36:57;;;;;;;1108.38;999.90;;;;;;;21.64;51.96;98892.13;5065783;27;103887;-66
2023/10/11 02:39:31;;;;;;;1108.10;999.90;;;;;;;21.64;52.32;98892.13;5042332;27;104139;-66
2023/10/11 02:42:00;;;;;;;1076.83;999.90;;;;;;;22.18;50.70;98890.28;5046802;27;104395;-66
2023/10/11 02:44:31;;;;;;;1098.95;999.90;;;;;;;21.99;50.96;98896.97;5067338;27;102712;-67
2023/10/11 02:46:59;;;;;;;1091.22;999.90;;;;;;;22.01;50.79;98888.75;5042807;27;103944;-66
2023/10/11 02:49:31;;;;;;;1092.22;999.90;;;;;;;22.16;50.44;98886.94;5064635;27;103324;-67
2023/10/11 02:52:06;;;;;;;1121.53;999.90;;;;;;;21.38;52.33;98885.19;5065842;27;103253;-66
2023/10/11 02:54:39;;;;;;;1100.50;999.90;;;;;;;21.28;52.28;98887.22;5046054;27;102894;-66
2023/10/11 02:57:11;;;;;;;1116.72;999.90;;;;;;;21.65;51.54;98883.03;5063811;27;102707;-67
2023/10/11 02:59:44;;;;;;;1100.03;999.90;;;;;;;22.03;50.61;98881.31;5062566;27;104065;-66
2023/10/11 03:02:15;;;;;;;1117.13;999.90;;;;;;;21.76;51.39;98880.78;5065919;27;103372;-67
2023/10/11 03:04:44;;;;;;;1085.78;999.90;;;;;;;22.07;50.40;98877.25;5044810;27;102602;-66
2023/10/11 03:07:20;;;;;;;1116.95;999.90;;;;;;;21.86;50.92;98880.56;5068532;27;103915;-67
2023/10/11 03:09:51;;;;;;;1096.07;999.90;;;;;;;22.06;50.53;98876.44;5046250;27;105775;-66
2023/10/11 03:12:30;;;;;;;1115.10;999.90;;;;;;;21.80;51.34;98875.88;5067283;27;103572;-66
2023/10/11 03:15:06;;;;;;;1097.73;999.90;;;;;;;21.88;50.86;98873.19;5044726;27;103064;-66
2023/10/11 03:17:40;;;;;;;1100.47;999.90;;;;;;;22.12;50.08;98877.56;5067480;27;102568;-66
2023/10/11 03:20:24;;;;;;;1117.83;999.90;;;;;;;21.93;50.55;98876.16;5063172;27;103295;-66
2023/10/11 03:22:52;;;;;;;1114.60;999.90;;;;;;;21.78;50.74;98876.06;5063400;27;103394;-67
2023/10/11 03:25:22;;;;;;;1107.70;999.90;;;;;;;22.00;50.13;98871.75;5065509;27;102701;-67
2023/10/11 03:27:50;;;;;;;1101.40;999.90;;;;;;;21.80;50.45;98875.88;5066021;27;103691;-67
2023/10/11 03:30:23;;;;;;;1090.75;999.90;;;;;;;22.09;49.82;98881.41;5064906;27;104345;-67
2023/10/11 03:32:51;;;;;;;1122.82;999.90;;;;;;;21.78;50.57;98867.97;5047073;27;105813;-67
2023/10/11 03:35:19;;;;;;;1101.13;999.90;;;;;;;21.61;51.50;98879.88;5065468;27;102741;-67
2023/10/11 03:37:58;;;;;;;1111.80;999.90;;;;;;;21.80;50.79;98870.50;5064461;27;104671;-67
2023/10/11 03:40:34;;;;;;;1089.97;999.90;;;;;;;21.83;50.90;98868.31;5061565;27;103723;-68
2023/10/11 03:43:03;;;;;;;1117.13;999.90;;;;;;;21.51;50.84;98862.25;5064795;27;103188;-67
2023/10/11 03:45:34;;;;;;;1104.28;999.90;;;;;;;21.51;51.66;98862.25;5063283;27;102547;-68
2023/10/11 03:48:09;;;;;;;1100.82;999.90;;;;;;;20.81;52.96;98863.00;5064962;27;103616;-66
2023/10/11 03:50:47;;;;;;;1107.88;999.90;;;;;;;21.56;51.34;98859.91;5057945;27;103778;-67
2023/10/11 03:53:18;;;;;;;1116.78;999.90;;;;;;;21.20;51.86;98863.09;5060221;27;104133;-67
2023/10/11 03:55:49;;;;;;;1110.28;999.90;;;;;;;21.55;51.57;98861.75;5063289;27;102624;-67
2023/10/11 03:58:32;;;;;;;1110.03;999.90;;;;;;;21.32;52.05;98866.22;5042928;27;103137;-67
2023/10/11 04:01:12;;;;;;;1102.10;999.90;;;;;;;21.51;51.19;98859.56;5063141;27;103791;-67
2023/10/11 04:03:41;;;;;;;1099.85;999.90;;;;;;;21.17;51.90;98867.97;5060777;27;103240;-66
2023/10/11 04:06:15;;;;;;;1110.17;999.90;;;;;;;20.78;53.36;98873.25;5063242;27;102918;-66
2023/10/11 04:08:54;;;;;;;1124.57;999.90;;;;;;;20.85;53.02;98863.50;5064203;27;102896;-66
2023/10/11 04:11:37;;;;;;;1116.27;999.90;;;;;;;21.09;52.58;98858.09;5062074;27;103246;-66
2023/10/11 04:14:12;;;;;;;1108.60;999.90;;;;;;;20.83;52.84;98854.78;5066064;27;103209;-66
2023/10/11 04:17:00;;;;;;;1095.43;999.90;;;;;;;21.14;52.15;98858.41;5062734;27;102977;-66
2023/10/11 04:34:15;;;;;;;1104.30;999.90;;;;;;;21.20;52.51;98863.09;5054465;27;103040;-65
2023/10/11 04:41:56;;;;;;;1098.30;999.90;;;;;;;20.95;52.94;98874.88;5045991;27;104110;-67
2023/10/11 04:44:47;;;;;;;1116.07;999.90;;;;;;;21.00;52.84;98877.88;5056707;27;103122;-67
2023/10/11 04:47:17;;;;;;;1119.60;999.90;;;;;;;20.70;53.01;98878.63;5060636;27;102820;-68
2023/10/11 04:49:45;;;;;;;1122.88;999.90;;;;;;;21.27;51.92;98872.13;5058723;27;103784;-68
2023/10/11 04:52:22;;;;;;;1129.07;999.90;;;;;;;21.28;51.92;98878.31;5058485;27;103385;-68
2023/10/11 04:55:34;;;;;;;1100.82;999.90;;;;;;;21.19;51.72;98879.41;5057848;27;103272;-68
2023/10/11 04:58:42;;;;;;;1126.77;999.90;;;;;;;20.90;52.80;98871.88;5056611;27;102952;-68
2023/10/11 05:01:11;;;;;;;1112.55;999.90;;;;;;;20.83;52.93;98877.09;5051094;27;103695;-68
2023/10/11 05:03:39;;;;;;;1105.27;999.90;;;;;;;20.53;53.32;98879.66;5042699;27;104103;-68
2023/10/11 05:06:14;;;;;;;1107.15;999.90;;;;;;;21.00;52.58;98877.88;5056666;27;103183;-69
2023/10/11 05:08:54;;;;;;;1128.47;999.90;;;;;;;21.32;51.37;98877.81;5059932;27;102728;-69
2023/10/11 05:11:36;;;;;;;1103.07;999.90;;;;;;;21.32;51.23;98877.81;5042170;27;102808;-69
2023/10/11 05:14:10;;;;;;;1100.10;999.90;;;;;;;21.29;51.45;98883.53;5061664;27;103803;-69
2023/10/11 05:16:44;;;;;;;1102.75;999.90;;;;;;;21.73;50.35;98882.97;5059481;27;103272;-69
2023/10/11 05:19:15;;;;;;;1101.13;999.90;;;;;;;21.53;50.56;98879.06;5058989;27;103114;-68
2023/10/11 05:21:43;;;;;;;1085.30;999.90;;;;;;;21.69;50.37;98878.97;5059384;27;103396;-69
2023/10/11 05:24:29;;;;;;;1096.38;999.90;;;;;;;21.49;50.52;98875.06;5059124;27;105961;-69
2023/10/11 05:27:11;;;;;;;1102.47;999.90;;;;;;;21.20;51.13;98884.56;5056651;27;103198;-68
2023/10/11 05:30:06;;;;;;;1109.28;999.90;;;;;;;20.95;51.97;98869.53;5041078;27;102732;-68
2023/10/11 05:32:35;;;;;;;1107.53;999.90;;;;;;;21.03;51.69;98879.38;5058265;27;103882;-69
2023/10/11 05:35:24;;;;;;;1090.90;999.90;;;;;;;21.63;50.63;98879.69;5055927;27;104122;-70
2023/10/11 05:51:45;;;;;;;1111.43;999.90;;;;;;;20.97;51.67;98883.59;5054702;27;102695;-69
2023/10/11 05:54:15;;;;;;;1122.13;999.90;;;;;;;21.02;52.00;98889.31;5060706;27;103747;-69
2023/10/11 05:56:47;;;;;;;1090.43;999.90;;;;;;;21.15;51.73;98896.84;5060146;27;104075;-70
2023/10/11 05:59:15;;;;;;;1106.78;999.90;;;;;;;21.21;51.37;98896.16;5052934;27;103305;-70
2023/10/11 06:01:45;;;;;;;1091.15;999.90;;;;;;;21.38;50.70;98893.25;5063336;27;102712;-69
2023/10/11 06:04:14;;;;;;;1126.20;999.90;;;;;;;21.23;51.18;98896.81;5031794;27;102984;-70
2023/10/11 06:06:45;;;;;;;1101.82;999.90;;;;;;;21.18;51.65;98896.50;5063602;27;103922;-70
2023/10/11 06:09:17;;;;;;;1114.53;999.90;;;;;;;21.19;51.42;98901.69;5057876;27;103554;-70
2023/10/11 06:11:48;;;;;;;1112.20;999.90;;;;;;;21.42;50.83;98898.28;5045797;27;104118;-70
2023/10/11 06:14:18;;;;;;;1098.53;999.90;;;;;;;21.36;50.50;98889.88;5061774;27;102938;-70
2023/10/11 06:16:56;;;;;;;1095.53;999.90;;;;;;;21.12;50.97;98889.97;5060152;27;104415;-70
2023/10/11 06:19:27;;;;;;;1111.63;999.90;;;;;;;21.16;51.49;98899.38;5068297;27;103245;-70
2023/10/11 06:21:58;;;;;;;1106.40;999.90;;;;;;;21.33;50.82;98895.59;5064153;27;102615;-70
2023/10/11 06:24:30;;;;;;;1111.68;999.90;;;;;;;21.13;51.65;98893.50;5065016;27;102846;-68
2023/10/11 06:27:46;;;;;;;1112.17;999.90;;;;;;;20.65;52.73;98899.78;5040617;27;104048;-69
2023/10/11 06:29:53;;;;;;;1104.68;999.90;;;;;;;21.23;51.40;98886.91;5060565;27;103239;-69
2023/10/11 06:32:23;;;;;;;1103.17;999.90;;;;;;;20.73;52.51;98886.34;5059531;27;103906;-68
2023/10/11 06:34:52;;;;;;;1124.47;999.90;;;;;;;20.63;52.99;98889.22;5060913;27;103875;-68
2023/10/11 06:37:24;;;;;;;1109.05;999.90;;;;;;;20.70;52.93;98892.06;5060541;27;103388;-69
2023/10/11 06:40:13;;;;;;;1102.85;999.90;;;;;;;20.56;53.10;98895.44;5064996;27;103287;-68
2023/10/11 06:42:42;;;;;;;1098.68;999.90;;;;;;;21.04;52.29;98895.34;5063733;27;104401;-68
2023/10/11 06:45:16;;;;;;;1096.53;999.90;;;;;;;21.50;51.60;98896.38;5064589;27;103841;-69
2023/10/11 06:47:50;;;;;;;1090.88;999.90;;;;;;;21.78;50.81;98894.88;5058993;27;103347;-68
2023/10/11 06:50:24;;;;;;;1096.15;999.90;;;;;;;21.98;49.68;98902.53;5040714;27;103210;-60
2023/10/11 06:52:53;;;;;;;1115.20;999.90;;;;;;;21.58;51.61;98903.56;5039627;27;102768;-60
2023/10/11 06:55:25;;;;;;;1082.67;999.90;;;;;;;21.98;49.96;98895.28;5063661;27;104104;-60
2023/10/11 06:57:54;;;;;;;1094.55;999.90;;;;;;;21.74;50.36;98898.09;5062827;27;104537;-59
2023/10/11 07:00:28;;;;;;;1072.80;999.90;;;;;;;22.23;48.92;98898.66;5063021;27;103256;-59
2023/10/11 07:03:09;;;;;;;1035.40;973.08;;;;;;;23.02;48.11;98898.13;5043703;27;102824;-68
2023/10/11 07:05:40;;;;;;;1049.95;986.08;;;;;;;22.69;48.29;98902.16;5061993;27;103973;-68
2023/10/11 07:08:09;;;;;;;1046.75;983.47;;;;;;;23.06;48.11;98896.75;5063033;27;104078;-68
2023/10/11 07:10:45;;;;;;;1035.60;972.33;;;;;;;22.86;47.79;98900.97;5060405;27;103265;-68
2023/10/11 07:13:16;;;;;;;1027.18;965.05;;;;;;;22.99;47.65;98895.78;5060382;27;102735;-69
2023/10/11 07:15:45;;;;;;;1027.32;964.00;;;;;;;23.16;47.62;98896.47;5063204;27;103835;-69
2023/10/11 07:18:24;;;;;;;1002.30;942.40;;;;;;;23.53;46.40;98902.59;5062144;27;103310;-69
2023/10/11 07:21:07;;;;;;;1022.77;961.50;;;;;;;24.43;45.53;98896.75;5062052;27;103292;-69
2023/10/11 07:23:46;;;;;;;1015.42;954.85;;;;;;;24.48;45.05;98905.94;5062211;27;102967;-69
2023/10/11 07:29:02;;;;;;;982.63;925.47;;;;;;;24.66;44.71;98902.78;5050383;27;103704;-69
2023/10/11 07:31:32;;;;;;;993.55;934.40;;;;;;;25.27;43.61;98906.56;5062008;27;103136;-69
2023/10/11 07:34:05;;;;;;;999.20;940.03;;;;;;;25.14;43.41;98915.44;5060439;27;102718;-69
2023/10/11 07:36:36;;;;;;;988.92;930.75;;;;;;;25.82;43.02;98913.75;5061440;27;103883;-69
2023/10/11 07:39:14;;;;;;;994.08;936.22;;;;;;;25.88;43.16;98913.75;5060728;27;103574;-70
2023/10/11 07:41:43;;;;;;;1007.97;950.22;;;;;;;25.78;42.34;98910.59;5062797;27;102592;-70
2023/10/11 07:44:12;;;;;;;1051.03;989.90;;;;;;;26.21;42.13;98907.63;5061898;27;102771;-69
2023/10/11 07:46:41;;;;;;;1064.20;999.90;;;;;;;25.89;42.20;98912.72;5062846;27;103895;-70
2023/10/11 07:49:15;;;;;;;1092.53;999.90;;;;;;;27.10;41.06;98914.34;5061909;27;103886;-69
2023/10/11 07:51:44;;;;;;;1032.20;971.55;;;;;;;27.24;40.67;98912.44;5037234;27;103941;-67
2023/10/11 07:54:19;;;;;;;1003.37;944.83;;;;;;;27.20;39.94;98908.50;5061484;27;103031;-66
2023/10/11 07:56:49;;;;;;;989.03;932.42;;;;;;;27.11;39.76;98909.75;5060108;27;103944;-66
2023/10/11 07:59:21;;;;;;;966.67;912.97;;;;;;;27.63;39.41;98904.22;5060587;27;103296;-66
2023/10/11 08:01:53;;;;;;;979.45;925.67;;;;;;;27.21;39.16;98902.84;5063414;27;103196;-66
2023/10/11 08:04:28;;;;;;;834.40;794.22;;;;;;;28.00;39.13;98892.56;5040440;27;102629;-66
2023/10/11 08:07:12;;;;;;;836.95;796.00;;;;;;;27.72;39.05;98894.78;5062105;27;103367;-66
2023/10/11 08:09:46;;;;;;;857.33;814.33;;;;;;;27.90;39.30;98892.16;5062355;27;104005;-61
2023/10/11 08:12:18;;;;;;;776.67;740.40;;;;;;;27.85;38.82;98902.84;5036244;27;103221;-61
2023/10/11 08:14:47;;;;;;;852.53;811.17;;;;;;;27.26;39.73;98904.91;5042036;27;104409;-61
2023/10/11 08:17:16;;;;;;;832.65;793.53;;;;;;;27.42;39.23;98896.38;5050923;27;104073;-63
2023/10/11 08:19:46;;;;;;;830.20;791.88;;;;;;;27.85;39.09;98902.03;5036690;27;104515;-62
2023/10/11 08:22:15;;;;;;;723.00;690.92;;;;;;;28.63;38.07;98903.47;5054886;27;103371;-61
2023/10/11 08:24:48;;;;;;;854.60;815.55;;;;;;;28.72;38.10;98896.69;5056837;27;102774;-61
2023/10/11 08:27:27;;;;;;;832.08;793.40;;;;;;;28.80;38.74;98893.69;5060984;27;103744;-62
2023/10/11 08:30:07;;;;;;;794.87;757.70;;;;;;;27.83;39.19;98895.97;5061725;27;104316;-63
2023/10/11 08:32:38;;;;;;;679.17;649.80;;;;;;;28.92;37.35;98897.34;5061569;27;104131;-63
2023/10/11 08:35:10;;;;;;;637.15;610.35;;;;;;;29.40;36.59;98900.25;5060090;27;103071;-62
2023/10/11 08:37:38;;;;;;;632.30;605.67;;;;;;;29.11;37.48;98890.88;5057980;27;103768;-63
2023/10/11 08:40:20;;;;;;;630.13;603.43;;;;;;;29.82;36.78;98893.91;5061465;27;103866;-62
2023/10/11 08:42:49;;;;;;;546.40;524.00;;;;;;;30.00;35.77;98884.88;5060044;27;103237;-63
2023/10/11 08:45:24;;;;;;;500.90;480.83;;;;;;;30.06;35.57;98885.84;5038985;27;102867;-63
2023/10/11 08:47:53;;;;;;;561.35;537.92;;;;;;;29.25;36.61;98895.16;5060654;27;104063;-62
2023/10/11 08:50:23;;;;;;;556.53;533.95;;;;;;;30.10;36.70;98893.31;5059249;27;103050;-63
2023/10/11 08:52:55;;;;;;;567.25;543.75;;;;;;;29.94;36.48;98890.41;5056468;27;103232;-63
2023/10/11 08:55:24;;;;;;;488.90;469.57;;;;;;;30.73;35.94;98890.06;5061134;27;102725;-62
2023/10/11 08:57:53;;;;;;;529.45;508.30;;;;;;;29.67;36.26;98884.44;5060928;27;103694;-62
2023/10/11 09:00:30;;;;;;;506.50;485.92;;;;;;;30.05;35.74;98885.00;5040596;27;104225;-63
2023/10/11 09:02:58;;;;;;;472.60;453.83;;;;;;;29.79;36.21;98882.59;5042559;27;104228;-62
2023/10/11 09:05:43;;;;;;;472.07;453.07;;;;;;;30.58;34.86;98876.88;5055948;27;102950;-62
2023/10/11 09:08:22;;;;;;;470.40;451.13;;;;;;;30.88;35.24;98876.78;5057812;27;104056;-62
2023/10/11 09:10:51;;;;;;;430.40;413.38;;;;;;;30.98;34.23;98874.34;5059065;27;103671;-62
2023/10/11 09:13:27;;;;;;;471.85;453.15;;;;;;;30.64;34.70;98875.94;5060764;27;102997;-62
2023/10/11 09:15:55;;;;;;;438.05;420.63;;;;;;;31.38;33.90;98866.25;5057812;27;102988;-62
2023/10/11 09:18:25;;;;;;;419.30;402.17;;;;;;;31.66;33.82;98873.69;5057274;27;104239;-62
2023/10/11 09:21:08;;;;;;;406.65;390.63;;;;;;;31.34;34.04;98871.34;5058875;27;103277;-63
2023/10/11 09:23:38;;;;;;;432.83;415.65;;;;;;;31.10;33.39;98874.34;5062231;27;103195;-62
2023/10/11 09:26:08;;;;;;;433.40;416.25;;;;;;;31.63;33.17;98882.34;5061352;27;103175;-63
2023/10/11 09:28:40;;;;;;;425.90;407.77;;;;;;;30.50;35.31;98882.69;5058596;27;103210;-63
2023/10/11 09:31:15;;;;;;;447.77;429.65;;;;;;;30.79;34.51;98883.69;5062680;27;103944;-63
2023/10/11 09:33:50;;;;;;;520.33;498.30;;;;;;;31.86;33.09;98883.09;5060584;27;103238;-63
2023/10/11 09:36:24;;;;;;;506.75;485.95;;;;;;;31.82;33.18;98878.38;5060843;27;103053;-62
2023/10/11 09:38:55;;;;;;;593.17;566.70;;;;;;;32.09;32.93;98874.00;5063160;27;103044;-62
2023/10/11 09:41:28;;;;;;;689.65;656.55;;;;;;;32.62;32.42;98873.59;5043984;27;104129;-62
2023/10/11 09:43:58;;;;;;;582.13;556.28;;;;;;;32.02;32.87;98867.88;5063424;27;103533;-62
2023/10/11 09:46:30;;;;;;;563.25;538.30;;;;;;;32.27;32.66;98876.53;5042490;27;103227;-62
2023/10/11 09:48:59;;;;;;;523.17;501.13;;;;;;;32.40;33.01;98870.75;5061114;27;103641;-62
2023/10/11 09:51:32;;;;;;;673.47;641.35;;;;;;;32.76;32.40;98871.38;5041368;27;104267;-62
2023/10/11 09:54:07;;;;;;;638.00;607.72;;;;;;;32.44;32.46;98863.72;5064434;27;103208;-64
2023/10/11 09:56:48;;;;;;;569.28;543.50;;;;;;;32.31;32.90;98866.75;5061684;27;102640;-64
2023/10/11 09:59:29;;;;;;;663.47;631.67;;;;;;;33.01;32.19;98877.25;5061449;27;103608;-64
2023/10/11 10:02:07;;;;;;;724.50;687.95;;;;;;;33.69;32.03;98869.47;5062180;27;104011;-64
2023/10/11 10:04:58;;;;;;;719.08;683.20;;;;;;;32.50;32.44;98868.22;5062006;27;103193;-64
2023/10/11 10:07:32;;;;;;;821.80;778.08;;;;;;;33.67;30.67;98868.91;5061662;27;102630;-64
2023/10/11 10:10:02;;;;;;;791.55;748.67;;;;;;;33.57;31.69;98855.09;5064055;27;104267;-64
2023/10/11 10:12:34;;;;;;;819.42;773.20;;;;;;;33.74;31.26;98847.59;5059675;27;104315;-64
2023/10/11 10:15:09;;;;;;;832.80;785.50;;;;;;;33.56;31.15;98853.41;5039649;27;104073;-64
2023/10/11 10:17:42;;;;;;;836.63;789.60;;;;;;;34.31;30.82;98852.63;5059121;27;102607;-64
2023/10/11 10:20:44;;;;;;;826.92;779.85;;;;;;;33.72;30.92;98857.16;5062072;27;103559;-63
2023/10/11 10:23:29;;;;;;;829.20;780.05;;;;;;;33.16;31.02;98864.63;4977659;28;103718;-63
2023/10/11 10:26:35;;;;;;;768.58;719.53;;;;;;;34.97;28.88;98869.66;4978287;28;103406;-64
2023/10/11 10:29:06;;;;;;;775.67;726.28;;;;;;;34.19;29.88;98862.94;5043616;27;102783;-62
2023/10/11 10:32:04;;;;;;;755.45;707.53;;;;;;;34.60;30.04;98859.50;5060655;27;103778;-63
2023/10/11 10:34:32;;;;;;;773.38;724.95;;;;;;;34.56;30.13;98863.81;5062744;27;104474;-62
2023/10/11 10:37:06;;;;;;;749.50;700.90;;;;;;;35.12;28.81;98850.59;5060834;27;103222;-62
2023/10/11 10:39:47;;;;;;;763.85;714.25;;;;;;;35.12;28.79;98850.59;5044633;27;103067;-62
2023/10/11 10:42:16;;;;;;;753.17;703.72;;;;;;;35.13;29.06;98846.72;5058228;27;103570;-62
2023/10/11 10:44:51;;;;;;;750.72;701.00;;;;;;;34.71;29.14;98850.25;5059595;27;104424;-63
2023/10/11 10:47:26;;;;;;;749.80;699.73;;;;;;;35.70;28.73;98839.34;5058541;27;103256;-64
2023/10/11 10:49:55;;;;;;;734.45;685.55;;;;;;;35.28;28.44;98830.34;5041797;27;102814;-62
2023/10/11 10:52:26;;;;;;;746.00;696.40;;;;;;;36.15;27.84;98837.84;5060252;27;102954;-62
2023/10/11 10:55:01;;;;;;;744.65;695.08;;;;;;;35.37;28.23;98837.78;5061049;27;103408;-63
2023/10/11 10:57:36;;;;;;;750.17;699.83;;;;;;;34.89;29.27;98829.81;5059889;27;103184;-63
2023/10/11 11:00:07;;;;;;;766.93;714.67;;;;;;;35.18;28.86;98819.28;5037711;27;102770;-64
2023/10/11 11:02:37;;;;;;;743.83;693.70;;;;;;;35.45;28.45;98822.75;5057687;27;102945;-63
2023/10/11 11:05:15;;;;;;;757.00;706.60;;;;;;;36.61;26.98;98815.59;5057645;27;104016;-64
2023/10/11 11:07:47;;;;;;;777.53;725.65;;;;;;;36.84;27.43;98816.94;5057649;27;103174;-63
2023/10/11 11:10:21;;;;;;;785.30;733.63;;;;;;;35.89;28.16;98809.44;5057436;27;102615;-63
2023/10/11 11:12:49;;;;;;;766.80;716.65;;;;;;;36.46;27.59;98806.50;5056150;27;102709;-62
2023/10/11 11:15:21;;;;;;;761.30;710.63;;;;;;;35.63;28.49;98800.28;5059005;27;103348;-61
2023/10/11 11:17:51;;;;;;;761.90;710.83;;;;;;;36.61;27.52;98792.75;5056269;27;103987;-61
2023/10/11 11:20:28;;;;;;;760.15;708.80;;;;;;;36.24;28.27;98792.22;5041969;27;102987;-61
2023/10/11 11:22:56;;;;;;;769.47;716.60;;;;;;;36.01;27.44;98793.53;5061092;27;103031;-61
2023/10/11 11:25:27;;;;;;;762.47;710.38;;;;;;;36.33;27.03;98796.03;5035015;27;104184;-63
2023/10/11 11:28:14;;;;;;;762.58;711.45;;;;;;;36.81;27.38;98797.41;5034481;27;104689;-63
2023/10/11 11:30:44;;;;;;;684.10;639.47;;;;;;;37.48;26.60;98796.97;5061394;27;102878;-62
2023/10/11 11:33:28;;;;;;;788.50;735.77;;;;;;;37.01;27.70;98792.72;5059443;27;103772;-62
2023/10/11 11:36:10;;;;;;;819.17;763.50;;;;;;;35.48;28.94;98797.47;5055109;27;103146;-62
2023/10/11 11:38:46;;;;;;;841.10;782.50;;;;;;;35.63;29.40;98786.56;5057748;27;103018;-63
2023/10/11 11:41:16;;;;;;;877.53;817.10;;;;;;;34.68;30.39;98784.94;5059957;27;102931;-62
2023/10/11 11:43:55;;;;;;;850.93;793.10;;;;;;;35.91;29.84;98782.50;5036452;27;103151;-62
2023/10/11 11:46:23;;;;;;;862.88;802.85;;;;;;;35.35;29.47;98779.56;5059527;27;104110;-62
2023/10/11 11:48:51;;;;;;;848.63;790.53;;;;;;;35.01;29.11;98783.75;5055650;27;104176;-63
2023/10/11 11:51:19;;;;;;;863.45;804.15;;;;;;;34.97;29.32;98782.66;5058616;27;102902;-62
2023/10/11 11:53:48;;;;;;;885.07;825.13;;;;;;;34.93;29.30;98774.13;5038246;27;102941;-63